Terminal Aerodrome Forecast
Issued by NWS

Home | Current Version | Previous Version | Text Only | Print | Product List | Glossary On
Versions: 1 2 3 4 5 6 7 8 9 10 11 12 13 14 15 16 17 18
000
FTUS46 KSEW 260520
TAFBLI
TAF
KBLI 260520Z 2606/2706 19005KT P6SM BKN025 OVC100
      TEMPO 2612/2616 BKN015 BKN040
     FM262000 25006KT P6SM FEW045 SCT250=

USA.gov is the U.S. government's official web portal to all federal, state and local government web resources and services.